createdAt,value
2022-12-13T00:02:06.954Z,19.93
2022-12-13T00:04:35.756Z,17.83
2022-12-13T00:07:04.569Z,19.33
2022-12-13T00:09:33.304Z,19.33
2022-12-13T00:12:04.979Z,19.60
2022-12-13T00:14:34.228Z,17.63
2022-12-13T00:17:03.162Z,17.87
2022-12-13T00:19:31.757Z,19.13
2022-12-13T00:22:00.390Z,18.50
2022-12-13T00:24:29.030Z,18.93
2022-12-13T00:26:57.643Z,20.57
2022-12-13T00:29:27.871Z,18.97
2022-12-13T00:32:01.070Z,18.70
2022-12-13T00:34:30.576Z,19.23
2022-12-13T00:37:00.571Z,18.07
2022-12-13T00:39:29.826Z,19.67
2022-12-13T00:41:58.731Z,18.83
2022-12-13T00:44:28.793Z,16.27
2022-12-13T00:46:57.687Z,15.33
2022-12-13T00:49:26.510Z,20.53
2022-12-13T00:51:55.105Z,16.60
2022-12-13T00:54:23.765Z,15.47
2022-12-13T00:56:52.810Z,16.40
2022-12-13T00:59:21.938Z,16.03
2022-12-13T01:01:52.017Z,15.83
2022-12-13T01:04:20.754Z,12.80
2022-12-13T01:06:51.601Z,16.50
2022-12-13T01:09:22.974Z,13.67
2022-12-13T01:11:51.846Z,13.87
2022-12-13T01:14:20.771Z,12.97
2022-12-13T01:16:49.711Z,14.63
2022-12-13T01:19:19.753Z,12.50
2022-12-13T01:21:48.394Z,11.00
2022-12-13T01:24:20.790Z,12.77
2022-12-13T01:26:49.480Z,15.83
2022-12-13T01:29:18.301Z,14.13
2022-12-13T01:31:46.923Z,13.07
2022-12-13T01:34:17.732Z,14.23
2022-12-13T01:36:49.532Z,12.80
2022-12-13T01:39:26.669Z,15.03
2022-12-13T01:42:00.188Z,13.63
2022-12-13T01:45:01.194Z,12.07
2022-12-13T01:47:35.012Z,14.70
2022-12-13T01:50:08.073Z,14.83
2022-12-13T01:52:39.148Z,17.57
2022-12-13T01:55:10.480Z,16.87
2022-12-13T01:57:45.369Z,14.97
2022-12-13T02:00:15.923Z,13.60
2022-12-13T02:02:45.000Z,15.77
2022-12-13T02:05:18.226Z,14.83
2022-12-13T02:07:51.529Z,13.47
2022-12-13T02:10:20.717Z,14.13
2022-12-13T02:12:49.736Z,12.70
2022-12-13T02:15:20.434Z,12.73
2022-12-13T02:18:04.030Z,13.83
2022-12-13T02:20:58.860Z,12.10
2022-12-13T02:24:14.021Z,13.30
2022-12-13T02:27:02.554Z,15.57
2022-12-13T02:30:02.751Z,14.90
2022-12-13T02:32:40.846Z,14.90
2022-12-13T02:35:15.620Z,14.10
2022-12-13T02:37:52.044Z,13.03
2022-12-13T02:40:27.879Z,15.20
2022-12-13T02:43:03.080Z,13.13
2022-12-13T02:45:36.234Z,14.93
2022-12-13T02:48:08.914Z,16.80
2022-12-13T02:50:38.235Z,15.03
2022-12-13T02:53:08.482Z,14.03
2022-12-13T02:55:40.657Z,17.83
2022-12-13T02:58:12.985Z,17.73
2022-12-13T03:00:52.983Z,18.43
2022-12-13T03:03:34.346Z,16.43
2022-12-13T03:06:34.137Z,17.57
2022-12-13T03:09:25.046Z,15.37
2022-12-13T03:12:30.327Z,16.00
2022-12-13T03:15:03.699Z,14.50
2022-12-13T03:17:39.578Z,18.53
2022-12-13T03:20:22.765Z,17.73
2022-12-13T03:22:52.467Z,19.10
2022-12-13T03:25:30.909Z,21.20
2022-12-13T03:28:02.535Z,18.63
2022-12-13T03:30:32.437Z,20.27
2022-12-13T03:33:01.388Z,20.03
2022-12-13T03:35:34.962Z,22.53
2022-12-13T03:38:22.059Z,19.67
2022-12-13T03:40:54.636Z,19.27
2022-12-13T03:43:23.934Z,20.40
2022-12-13T03:45:53.183Z,22.97
2022-12-13T03:48:23.497Z,27.13
2022-12-13T03:50:55.809Z,26.37
2022-12-13T03:53:33.813Z,22.50
2022-12-13T03:56:04.280Z,21.70
2022-12-13T03:58:34.998Z,22.03
2022-12-13T04:01:07.355Z,21.73
2022-12-13T04:03:36.505Z,23.27
2022-12-13T04:06:07.628Z,21.63
2022-12-13T04:08:36.535Z,22.57
2022-12-13T04:11:25.990Z,23.90
2022-12-13T04:13:53.912Z,21.67
2022-12-13T04:16:23.427Z,22.77
2022-12-13T04:18:52.452Z,25.20
2022-12-13T04:21:22.535Z,20.70
2022-12-13T04:23:51.140Z,24.87
2022-12-13T04:26:20.007Z,26.10
2022-12-13T04:28:54.217Z,24.73
2022-12-13T04:31:23.497Z,23.43
2022-12-13T04:33:52.551Z,25.33
2022-12-13T04:36:31.601Z,26.30
2022-12-13T04:39:02.343Z,26.17
2022-12-13T04:41:36.348Z,25.13
2022-12-13T04:44:06.261Z,28.97
2022-12-13T04:46:55.126Z,25.17
2022-12-13T04:49:30.369Z,24.20
2022-12-13T04:52:01.846Z,27.93
2022-12-13T04:54:35.621Z,27.30
2022-12-13T04:57:07.070Z,30.27
2022-12-13T04:59:35.733Z,27.87
2022-12-13T05:02:05.184Z,29.57
2022-12-13T05:04:33.946Z,29.73
2022-12-13T05:07:04.132Z,31.53
2022-12-13T05:09:33.113Z,20.77
2022-12-13T05:12:02.228Z,25.83
2022-12-13T05:14:31.309Z,30.93
2022-12-13T05:17:00.217Z,29.73
2022-12-13T05:19:30.926Z,24.63
2022-12-13T05:22:02.193Z,28.13
2022-12-13T05:24:35.201Z,26.43
2022-12-13T05:27:24.399Z,18.35
2022-12-13T05:30:02.146Z,22.40
2022-12-13T05:32:42.605Z,22.42
2022-12-13T05:35:12.027Z,24.23
2022-12-13T05:37:40.929Z,27.17
2022-12-13T05:40:12.275Z,26.00
2022-12-13T05:42:41.314Z,25.80
2022-12-13T05:45:10.899Z,25.17
2022-12-13T05:47:40.046Z,26.03
2022-12-13T05:50:09.367Z,23.87
2022-12-13T05:52:38.374Z,23.38
2022-12-13T05:55:07.430Z,24.10
2022-12-13T05:57:38.094Z,22.13
2022-12-13T06:00:30.231Z,22.17
2022-12-13T06:02:57.091Z,21.27
2022-12-13T06:05:29.332Z,22.27
2022-12-13T06:07:59.350Z,23.10
2022-12-13T06:10:38.032Z,27.87
2022-12-13T06:13:21.977Z,25.93
2022-12-13T06:16:02.455Z,24.10
2022-12-13T06:18:32.979Z,26.17
2022-12-13T06:21:03.602Z,23.63
2022-12-13T06:23:33.139Z,22.20
2022-12-13T06:26:04.773Z,21.90
2022-12-13T06:28:34.929Z,21.63
2022-12-13T06:31:03.987Z,19.07
2022-12-13T06:33:35.756Z,20.83
2022-12-13T06:36:05.703Z,21.53
2022-12-13T06:38:34.591Z,22.17
2022-12-13T06:41:13.243Z,19.37
2022-12-13T06:43:45.876Z,16.93
2022-12-13T06:46:15.420Z,16.13
2022-12-13T06:48:44.733Z,18.17
2022-12-13T06:51:13.341Z,17.50
2022-12-13T06:53:51.851Z,16.57
2022-12-13T06:56:20.607Z,20.50
2022-12-13T06:58:50.943Z,16.63
2022-12-13T07:01:24.460Z,17.63
2022-12-13T07:03:56.048Z,16.17
2022-12-13T07:06:26.288Z,17.00
2022-12-13T07:08:57.981Z,15.43
2022-12-13T07:11:28.596Z,16.03
2022-12-13T07:13:58.759Z,16.50
2022-12-13T07:16:29.198Z,14.87
2022-12-13T07:19:01.071Z,16.67
2022-12-13T07:21:31.238Z,14.03
2022-12-13T07:24:01.456Z,14.33
2022-12-13T07:26:30.224Z,14.13
2022-12-13T07:29:00.787Z,14.03
2022-12-13T07:31:29.599Z,14.10
2022-12-13T07:33:58.471Z,14.80
2022-12-13T07:36:27.081Z,16.40
2022-12-13T07:38:57.074Z,17.63
2022-12-13T07:41:27.278Z,16.60
2022-12-13T07:43:57.142Z,18.70
2022-12-13T07:46:32.914Z,15.47
2022-12-13T07:49:03.195Z,14.50
2022-12-13T07:51:32.147Z,13.53
2022-12-13T07:54:00.943Z,15.07
2022-12-13T07:56:35.527Z,15.23
2022-12-13T07:59:04.675Z,15.27
2022-12-13T08:01:35.759Z,14.17
2022-12-13T08:04:05.077Z,14.63
2022-12-13T08:06:37.215Z,14.17
2022-12-13T08:09:06.521Z,14.50
2022-12-13T08:11:35.342Z,12.40
2022-12-13T08:14:03.953Z,13.77
2022-12-13T08:16:32.650Z,23.70
2022-12-13T08:19:04.521Z,45.57
2022-12-13T08:21:53.797Z,12.33
2022-12-13T08:24:23.946Z,12.93
2022-12-13T08:26:52.987Z,14.70
2022-12-13T08:29:23.503Z,13.73
2022-12-13T08:32:04.693Z,15.43
2022-12-13T08:34:34.901Z,15.17
2022-12-13T08:37:04.386Z,14.93
2022-12-13T08:39:35.715Z,14.77
2022-12-13T08:42:14.810Z,14.47
2022-12-13T08:44:51.754Z,15.33
2022-12-13T08:47:24.134Z,13.37
2022-12-13T08:50:01.283Z,15.53
2022-12-13T08:52:39.627Z,14.80
2022-12-13T08:55:10.660Z,19.97
2022-12-13T08:57:39.705Z,16.43
2022-12-13T09:00:11.721Z,16.77
2022-12-13T09:02:40.975Z,14.63
2022-12-13T09:05:13.069Z,14.30
2022-12-13T09:07:42.252Z,13.97
2022-12-13T09:10:25.716Z,13.97
2022-12-13T09:13:01.687Z,13.23
2022-12-13T09:15:34.513Z,15.10
2022-12-13T09:18:05.680Z,17.20
2022-12-13T09:20:40.907Z,13.27
2022-12-13T09:23:23.715Z,12.53
2022-12-13T09:26:05.296Z,13.77
2022-12-13T09:28:37.268Z,43.43
2022-12-13T09:31:08.852Z,25.60
2022-12-13T09:33:41.108Z,16.03
2022-12-13T09:36:14.469Z,15.50
2022-12-13T09:38:43.518Z,25.20
2022-12-13T09:41:28.954Z,22.60
2022-12-13T09:44:02.244Z,21.93
2022-12-13T09:46:34.832Z,14.83
2022-12-13T09:49:22.624Z,14.17
2022-12-13T09:52:21.414Z,15.13
2022-12-13T09:54:48.811Z,13.70
2022-12-13T09:57:31.367Z,15.13
2022-12-13T10:00:03.699Z,15.73
2022-12-13T10:02:35.410Z,15.97
2022-12-13T10:05:22.650Z,17.07
2022-12-13T10:07:57.903Z,18.40
2022-12-13T10:10:26.762Z,19.63
2022-12-13T10:13:01.101Z,17.00
2022-12-13T10:15:30.947Z,17.37
2022-12-13T10:18:01.164Z,16.83
2022-12-13T10:20:31.288Z,18.10
2022-12-13T10:23:31.223Z,16.97
2022-12-13T10:26:03.235Z,16.13
2022-12-13T10:28:34.990Z,12.73
2022-12-13T10:31:04.020Z,16.33
2022-12-13T10:33:34.671Z,17.80
2022-12-13T10:36:09.329Z,14.70
2022-12-13T10:38:41.858Z,14.38
2022-12-13T10:41:35.141Z,25.63
2022-12-13T10:44:25.578Z,21.57
2022-12-13T10:47:17.312Z,19.23
2022-12-13T10:49:58.886Z,17.67
2022-12-13T10:52:32.075Z,17.13
2022-12-13T10:55:22.717Z,17.63
2022-12-13T10:57:54.038Z,19.37
2022-12-13T11:00:38.417Z,22.73
2022-12-13T11:03:07.691Z,19.90
2022-12-13T11:05:38.713Z,23.10
2022-12-13T11:08:18.096Z,21.53
2022-12-13T11:10:57.424Z,20.70
2022-12-13T11:13:34.340Z,19.63
2022-12-13T11:16:05.201Z,20.43
2022-12-13T11:18:39.104Z,19.53
2022-12-13T11:21:09.382Z,21.50
2022-12-13T11:23:44.757Z,21.47
2022-12-13T11:26:23.961Z,20.67
2022-12-13T11:29:14.234Z,21.10
2022-12-13T11:31:50.611Z,16.50
2022-12-13T11:34:28.397Z,15.13
2022-12-13T11:37:03.029Z,15.60
2022-12-13T11:39:35.691Z,15.33
2022-12-13T11:42:17.275Z,16.67
2022-12-13T11:44:57.321Z,17.20
2022-12-13T11:47:29.630Z,16.50
2022-12-13T11:50:00.507Z,14.90
2022-12-13T11:52:34.875Z,18.50
2022-12-13T11:55:08.672Z,17.40
2022-12-13T11:57:46.954Z,20.03
2022-12-13T12:00:35.560Z,19.17
2022-12-13T12:03:17.791Z,17.83
2022-12-13T12:05:56.179Z,19.63
2022-12-13T12:08:43.690Z,17.70
2022-12-13T12:11:18.925Z,19.10
2022-12-13T12:13:53.713Z,18.33
2022-12-13T12:16:35.450Z,18.30
2022-12-13T12:19:04.922Z,20.83
2022-12-13T12:24:36.274Z,18.53
2022-12-13T12:27:24.274Z,18.27
2022-12-13T12:30:12.480Z,21.10
2022-12-13T12:32:48.731Z,19.27
2022-12-13T12:35:31.589Z,23.50
2022-12-13T12:38:10.587Z,23.40
2022-12-13T12:43:46.391Z,19.10
2022-12-13T12:46:52.207Z,20.10
2022-12-13T12:49:44.322Z,17.17
2022-12-13T12:52:19.004Z,16.20
2022-12-13T12:55:03.545Z,19.93
2022-12-13T12:57:41.205Z,18.03
2022-12-13T13:00:15.710Z,17.53
2022-12-13T13:02:51.567Z,16.53
2022-12-13T13:05:24.579Z,14.70
2022-12-13T13:07:59.385Z,20.23
2022-12-13T13:10:28.747Z,19.10
2022-12-13T13:13:32.917Z,15.53
2022-12-13T13:15:57.054Z,16.13
2022-12-13T13:18:48.151Z,15.27
2022-12-13T13:21:47.897Z,16.40
2022-12-13T13:24:27.258Z,17.67
2022-12-13T13:26:58.490Z,17.70
2022-12-13T13:29:38.686Z,19.97
2022-12-13T13:32:33.676Z,20.07
2022-12-13T13:35:44.027Z,21.60
2022-12-13T13:38:49.665Z,20.00
2022-12-13T13:42:03.618Z,24.10
2022-12-13T13:44:52.143Z,20.33
2022-12-13T13:47:42.618Z,20.43
2022-12-13T13:50:46.837Z,23.23
2022-12-13T13:53:53.666Z,22.40
2022-12-13T13:56:50.284Z,31.40
2022-12-13T13:59:55.991Z,26.23
2022-12-13T14:03:01.298Z,23.47
2022-12-13T14:06:15.125Z,20.80
2022-12-13T14:09:02.232Z,24.33
2022-12-13T14:12:21.640Z,24.27
2022-12-13T14:15:35.986Z,21.93
2022-12-13T14:18:45.407Z,22.60
2022-12-13T14:21:23.215Z,19.87
2022-12-13T14:24:04.385Z,20.97
2022-12-13T14:26:44.314Z,21.63
2022-12-13T14:29:25.458Z,24.07
2022-12-13T14:31:54.347Z,64.67
2022-12-13T14:34:26.742Z,56.60
2022-12-13T14:37:03.949Z,40.43
2022-12-13T14:39:36.079Z,30.53
2022-12-13T14:42:23.412Z,37.43
2022-12-13T14:44:52.658Z,56.37
2022-12-13T14:47:23.326Z,43.53
2022-12-13T14:49:56.997Z,33.87
2022-12-13T14:52:28.512Z,38.53
2022-12-13T14:55:01.092Z,29.03
2022-12-13T14:57:33.063Z,38.47
2022-12-13T15:00:21.370Z,39.00
2022-12-13T15:02:53.875Z,34.70
2022-12-13T15:05:28.781Z,44.93
2022-12-13T15:07:58.508Z,37.43
2022-12-13T15:10:35.545Z,31.60
2022-12-13T15:13:04.300Z,32.00
2022-12-13T15:15:35.140Z,28.83
2022-12-13T15:18:09.257Z,26.60
2022-12-13T15:20:41.532Z,24.87
2022-12-13T15:23:16.556Z,31.63
2022-12-13T15:25:48.400Z,29.33
2022-12-13T15:28:21.859Z,32.97
2022-12-13T15:30:51.756Z,31.37
2022-12-13T15:33:27.649Z,31.53
2022-12-13T15:36:12.654Z,27.73
2022-12-13T15:38:47.968Z,34.70
2022-12-13T15:41:20.610Z,37.27
2022-12-13T15:43:57.201Z,31.50
2022-12-13T15:46:40.869Z,31.50
2022-12-13T15:49:35.456Z,34.33
2022-12-13T15:52:35.793Z,54.30
2022-12-13T15:55:29.250Z,113.03
2022-12-13T15:58:26.044Z,121.47
2022-12-13T16:00:55.484Z,85.33
2022-12-13T16:03:27.121Z,52.93
2022-12-13T16:05:57.936Z,77.27
2022-12-13T16:08:30.449Z,73.73
2022-12-13T16:11:00.363Z,69.90
2022-12-13T16:13:32.516Z,52.40
2022-12-13T16:16:09.628Z,44.37
2022-12-13T16:18:46.549Z,51.87
2022-12-13T16:21:15.895Z,40.13
2022-12-13T16:23:48.185Z,35.00
2022-12-13T16:26:24.323Z,37.13
2022-12-13T16:28:59.004Z,35.33
2022-12-13T16:31:36.094Z,44.77
2022-12-13T16:34:05.487Z,40.17
2022-12-13T16:36:34.423Z,44.73
2022-12-13T16:39:03.162Z,38.90
2022-12-13T16:41:32.654Z,34.70
2022-12-13T16:44:04.499Z,31.10
2022-12-13T16:47:12.189Z,35.53
2022-12-13T16:49:27.229Z,33.80
2022-12-13T16:51:57.074Z,36.07
2022-12-13T16:54:28.005Z,39.97
2022-12-13T16:56:59.409Z,57.70
2022-12-13T16:59:31.809Z,38.07
2022-12-13T17:02:00.647Z,35.53
2022-12-13T17:04:29.410Z,34.33
2022-12-13T17:06:58.079Z,36.60
2022-12-13T17:09:26.951Z,48.93
2022-12-13T17:11:55.740Z,55.77
2022-12-13T17:14:24.613Z,38.43
2022-12-13T17:16:55.374Z,32.73
2022-12-13T17:19:24.293Z,38.57
2022-12-13T17:21:53.581Z,33.33
2022-12-13T17:24:22.711Z,32.83
2022-12-13T17:26:55.291Z,31.33
2022-12-13T17:29:25.678Z,33.57
2022-12-13T17:31:56.081Z,32.07
2022-12-13T17:34:24.896Z,37.73
2022-12-13T17:36:53.520Z,41.13
2022-12-13T17:39:22.595Z,38.93
2022-12-13T17:41:54.803Z,37.80
2022-12-13T17:44:25.359Z,35.83
2022-12-13T17:46:56.106Z,33.63
2022-12-13T17:49:27.183Z,36.07
2022-12-13T17:51:56.247Z,41.53
2022-12-13T17:54:26.858Z,37.17
2022-12-13T17:56:56.323Z,39.07
2022-12-13T17:59:25.507Z,39.07
2022-12-13T18:01:55.857Z,40.83
2022-12-13T18:04:24.749Z,37.73
2022-12-13T18:06:53.636Z,40.10
2022-12-13T18:09:22.528Z,38.07
2022-12-13T18:11:51.309Z,40.83
2022-12-13T18:14:19.984Z,48.57
2022-12-13T18:16:48.764Z,36.17
2022-12-13T18:19:19.370Z,32.97
2022-12-13T18:21:48.593Z,39.13
2022-12-13T18:24:17.695Z,37.77
2022-12-13T18:26:46.533Z,37.93
2022-12-13T18:29:15.729Z,39.60
2022-12-13T18:31:44.742Z,35.77
2022-12-13T18:34:14.053Z,36.57
2022-12-13T18:36:44.980Z,39.53
2022-12-13T18:39:13.925Z,37.27
2022-12-13T18:41:42.739Z,42.77
2022-12-13T18:44:13.781Z,46.70
2022-12-13T18:46:46.057Z,47.23
2022-12-13T18:49:15.237Z,48.53
2022-12-13T18:51:45.349Z,46.90
2022-12-13T18:54:14.258Z,49.20
2022-12-13T18:56:43.497Z,45.03
2022-12-13T18:59:12.695Z,44.80
2022-12-13T19:01:42.101Z,45.60
2022-12-13T19:04:11.004Z,40.53
2022-12-13T19:06:39.707Z,42.73
2022-12-13T19:09:10.181Z,42.17
2022-12-13T19:11:39.104Z,41.50
2022-12-13T19:14:08.448Z,37.00
2022-12-13T19:16:40.753Z,39.13
2022-12-13T19:19:09.716Z,34.87
2022-12-13T19:21:38.534Z,35.07
2022-12-13T19:24:10.951Z,37.07
2022-12-13T19:26:40.855Z,37.77
2022-12-13T19:29:09.474Z,42.77
2022-12-13T19:31:38.651Z,42.80
2022-12-13T19:34:07.469Z,42.30
2022-12-13T19:36:36.103Z,36.83
2022-12-13T19:39:04.940Z,37.80
2022-12-13T19:41:34.991Z,56.70
2022-12-13T19:44:05.052Z,54.17
2022-12-13T19:46:34.083Z,59.07
2022-12-13T19:49:03.324Z,42.10
2022-12-13T19:51:39.013Z,52.43
2022-12-13T19:54:11.358Z,99.73
2022-12-13T19:56:41.586Z,128.77
2022-12-13T19:59:11.275Z,143.27
2022-12-13T20:01:40.007Z,114.27
2022-12-13T20:04:08.697Z,85.73
2022-12-13T20:06:37.341Z,79.93
2022-12-13T20:09:06.052Z,109.23
2022-12-13T20:11:35.631Z,87.53
2022-12-13T20:14:06.211Z,77.97
2022-12-13T20:16:34.940Z,95.70
2022-12-13T20:19:04.443Z,62.73
2022-12-13T20:21:33.196Z,73.17
2022-12-13T20:24:02.122Z,57.93
2022-12-13T20:26:33.497Z,56.97
2022-12-13T20:29:02.631Z,54.00
2022-12-13T20:31:34.992Z,52.93
2022-12-13T20:34:06.882Z,56.87
2022-12-13T20:36:35.636Z,51.20
2022-12-13T20:39:05.957Z,51.50
2022-12-13T20:41:36.771Z,53.57
2022-12-13T20:44:08.140Z,45.90
2022-12-13T20:46:38.595Z,43.20
2022-12-13T20:49:10.037Z,44.27
2022-12-13T20:51:41.619Z,47.57
2022-12-13T20:54:10.746Z,48.33
2022-12-13T20:56:42.707Z,49.90
2022-12-13T20:59:14.544Z,48.37
2022-12-13T21:01:51.241Z,44.03
2022-12-13T21:04:20.227Z,45.27
2022-12-13T21:06:49.555Z,46.60
2022-12-13T21:09:18.440Z,50.67
2022-12-13T21:11:48.938Z,49.47
2022-12-13T21:14:23.080Z,47.87
2022-12-13T21:16:55.197Z,49.43
2022-12-13T21:19:25.572Z,48.13
2022-12-13T21:21:55.623Z,47.73
2022-12-13T21:24:26.111Z,53.37
2022-12-13T21:27:05.037Z,47.27
2022-12-13T21:29:34.270Z,49.57
2022-12-13T21:32:06.125Z,50.30
2022-12-13T21:34:35.014Z,49.63
2022-12-13T21:37:06.563Z,54.30
2022-12-13T21:39:35.308Z,54.17
2022-12-13T21:42:04.351Z,56.30
2022-12-13T21:44:32.982Z,55.13
2022-12-13T21:47:17.121Z,51.37
2022-12-13T21:49:48.792Z,49.73
2022-12-13T21:52:18.415Z,52.43
2022-12-13T21:54:47.245Z,54.80
2022-12-13T21:57:33.573Z,48.80
2022-12-13T22:00:02.679Z,56.20
2022-12-13T22:02:31.679Z,55.23
2022-12-13T22:05:02.002Z,51.97
2022-12-13T22:07:32.325Z,57.57
2022-12-13T22:10:02.227Z,57.20
2022-12-13T22:12:35.163Z,57.17
2022-12-13T22:15:05.509Z,56.17
2022-12-13T22:17:36.145Z,60.50
2022-12-13T22:20:08.519Z,58.97
2022-12-13T22:22:38.989Z,62.10
2022-12-13T22:25:09.430Z,64.50
2022-12-13T22:27:38.838Z,55.30
2022-12-13T22:30:09.045Z,55.43
2022-12-13T22:32:37.996Z,58.10
2022-12-13T22:35:09.071Z,60.00
2022-12-13T22:37:39.898Z,58.30
2022-12-13T22:40:12.322Z,62.77
2022-12-13T22:42:41.111Z,63.37
2022-12-13T22:45:10.297Z,64.57
2022-12-13T22:47:39.117Z,63.63
2022-12-13T22:50:10.064Z,63.65
2022-12-13T22:52:38.669Z,63.37
2022-12-13T22:55:09.336Z,57.03
2022-12-13T22:57:38.014Z,58.60
2022-12-13T23:00:10.253Z,54.57
2022-12-13T23:02:39.283Z,53.57
2022-12-13T23:05:11.169Z,58.90
2022-12-13T23:07:39.798Z,59.17
2022-12-13T23:10:29.615Z,57.20
2022-12-13T23:13:03.370Z,58.55
2022-12-13T23:15:32.941Z,62.33
2022-12-13T23:18:01.689Z,55.53
2022-12-13T23:20:31.854Z,58.43
2022-12-13T23:23:00.600Z,58.63
2022-12-13T23:25:29.361Z,62.77
2022-12-13T23:27:58.273Z,60.03
2022-12-13T23:30:26.905Z,64.13
2022-12-13T23:32:57.366Z,64.40
2022-12-13T23:35:29.252Z,63.67
2022-12-13T23:37:59.368Z,61.97
2022-12-13T23:40:28.039Z,60.80
2022-12-13T23:42:57.473Z,60.40
2022-12-13T23:45:27.109Z,57.17
2022-12-13T23:47:57.017Z,65.23
2022-12-13T23:50:26.038Z,60.63
2022-12-13T23:52:54.971Z,60.93
2022-12-13T23:55:25.220Z,54.93
2022-12-13T23:57:54.008Z,56.23
